sensor_id;sensor_type;location;lat;lon;timestamp;temperature;humidity
20246;DHT22;10281;54.406;18.556;2024-03-22T00:00:30;6.00;99.90
20246;DHT22;10281;54.406;18.556;2024-03-22T00:02:57;6.00;99.90
20246;DHT22;10281;54.406;18.556;2024-03-22T00:05:23;6.00;99.90
20246;DHT22;10281;54.406;18.556;2024-03-22T00:07:50;6.00;99.90
20246;DHT22;10281;54.406;18.556;2024-03-22T00:10:17;6.00;99.90
20246;DHT22;10281;54.406;18.556;2024-03-22T00:12:43;6.00;99.90
20246;DHT22;10281;54.406;18.556;2024-03-22T00:15:10;5.90;99.90
20246;DHT22;10281;54.406;18.556;2024-03-22T00:17:36;5.90;99.90
20246;DHT22;10281;54.406;18.556;2024-03-22T00:20:04;6.00;99.90
20246;DHT22;10281;54.406;18.556;2024-03-22T00:22:31;6.00;99.90
20246;DHT22;10281;54.406;18.556;2024-03-22T00:24:57;5.90;99.90
20246;DHT22;10281;54.406;18.556;2024-03-22T00:27:24;5.90;99.90
20246;DHT22;10281;54.406;18.556;2024-03-22T00:29:51;5.90;99.90
20246;DHT22;10281;54.406;18.556;2024-03-22T00:32:17;5.90;99.90
20246;DHT22;10281;54.406;18.556;2024-03-22T00:34:44;5.90;99.90
20246;DHT22;10281;54.406;18.556;2024-03-22T00:37:11;5.90;99.90
20246;DHT22;10281;54.406;18.556;2024-03-22T00:39:38;5.80;99.90
20246;DHT22;10281;54.406;18.556;2024-03-22T00:42:04;5.80;99.90
20246;DHT22;10281;54.406;18.556;2024-03-22T00:44:31;5.80;99.90
20246;DHT22;10281;54.406;18.556;2024-03-22T00:46:57;5.80;99.90
20246;DHT22;10281;54.406;18.556;2024-03-22T00:49:24;5.80;99.90
20246;DHT22;10281;54.406;18.556;2024-03-22T00:51:51;5.80;99.90
20246;DHT22;10281;54.406;18.556;2024-03-22T00:54:17;5.80;99.90
20246;DHT22;10281;54.406;18.556;2024-03-22T00:56:45;5.80;99.90
20246;DHT22;10281;54.406;18.556;2024-03-22T00:59:11;5.70;99.90
20246;DHT22;10281;54.406;18.556;2024-03-22T01:01:38;5.80;99.90
20246;DHT22;10281;54.406;18.556;2024-03-22T01:04:04;5.80;99.90
20246;DHT22;10281;54.406;18.556;2024-03-22T01:06:31;5.80;99.90
20246;DHT22;10281;54.406;18.556;2024-03-22T01:08:58;5.80;99.90
20246;DHT22;10281;54.406;18.556;2024-03-22T01:11:24;5.80;99.90
20246;DHT22;10281;54.406;18.556;2024-03-22T01:13:51;5.80;99.90
20246;DHT22;10281;54.406;18.556;2024-03-22T01:16:17;5.80;99.90
20246;DHT22;10281;54.406;18.556;2024-03-22T01:18:44;5.80;99.90
20246;DHT22;10281;54.406;18.556;2024-03-22T01:21:11;5.80;99.90
20246;DHT22;10281;54.406;18.556;2024-03-22T01:23:37;5.80;99.90
20246;DHT22;10281;54.406;18.556;2024-03-22T01:26:04;5.80;99.90
20246;DHT22;10281;54.406;18.556;2024-03-22T01:28:31;5.80;99.90
20246;DHT22;10281;54.406;18.556;2024-03-22T01:30:57;5.70;99.90
20246;DHT22;10281;54.406;18.556;2024-03-22T01:33:24;5.70;99.90
20246;DHT22;10281;54.406;18.556;2024-03-22T01:35:50;5.70;99.90
20246;DHT22;10281;54.406;18.556;2024-03-22T01:38:17;5.70;99.90
20246;DHT22;10281;54.406;18.556;2024-03-22T01:40:44;5.70;99.90
20246;DHT22;10281;54.406;18.556;2024-03-22T01:43:11;5.70;99.90
20246;DHT22;10281;54.406;18.556;2024-03-22T01:45:37;5.60;99.90
20246;DHT22;10281;54.406;18.556;2024-03-22T01:48:04;5.60;99.90
20246;DHT22;10281;54.406;18.556;2024-03-22T01:50:33;5.60;99.90
20246;DHT22;10281;54.406;18.556;2024-03-22T01:53:00;5.60;99.90
20246;DHT22;10281;54.406;18.556;2024-03-22T01:55:27;5.50;99.90
20246;DHT22;10281;54.406;18.556;2024-03-22T01:57:55;5.50;99.90
20246;DHT22;10281;54.406;18.556;2024-03-22T02:00:22;5.40;99.90
20246;DHT22;10281;54.406;18.556;2024-03-22T02:02:49;5.50;99.90
20246;DHT22;10281;54.406;18.556;2024-03-22T02:05:17;5.50;99.90
20246;DHT22;10281;54.406;18.556;2024-03-22T02:07:48;5.50;99.90
20246;DHT22;10281;54.406;18.556;2024-03-22T02:10:14;5.50;99.90
20246;DHT22;10281;54.406;18.556;2024-03-22T02:12:42;5.50;99.90
20246;DHT22;10281;54.406;18.556;2024-03-22T02:15:09;5.50;99.90
20246;DHT22;10281;54.406;18.556;2024-03-22T02:17:36;5.50;99.90
20246;DHT22;10281;54.406;18.556;2024-03-22T02:20:03;5.50;99.90
20246;DHT22;10281;54.406;18.556;2024-03-22T02:22:30;5.60;99.90
20246;DHT22;10281;54.406;18.556;2024-03-22T02:24:57;5.60;99.90
20246;DHT22;10281;54.406;18.556;2024-03-22T02:27:25;5.60;99.90
20246;DHT22;10281;54.406;18.556;2024-03-22T02:29:52;5.60;99.90
20246;DHT22;10281;54.406;18.556;2024-03-22T02:32:18;5.60;99.90
20246;DHT22;10281;54.406;18.556;2024-03-22T02:34:45;5.60;99.90
20246;DHT22;10281;54.406;18.556;2024-03-22T02:37:12;5.60;99.90
20246;DHT22;10281;54.406;18.556;2024-03-22T02:39:38;5.60;99.90
20246;DHT22;10281;54.406;18.556;2024-03-22T02:42:05;5.60;99.90
20246;DHT22;10281;54.406;18.556;2024-03-22T02:44:32;5.70;99.90
20246;DHT22;10281;54.406;18.556;2024-03-22T02:46:58;5.60;99.90
20246;DHT22;10281;54.406;18.556;2024-03-22T02:49:25;5.60;99.90
20246;DHT22;10281;54.406;18.556;2024-03-22T02:51:52;5.60;99.90
20246;DHT22;10281;54.406;18.556;2024-03-22T02:54:18;5.70;99.90
20246;DHT22;10281;54.406;18.556;2024-03-22T02:56:45;5.60;99.90
20246;DHT22;10281;54.406;18.556;2024-03-22T02:59:12;5.60;99.90
20246;DHT22;10281;54.406;18.556;2024-03-22T03:01:38;5.60;99.90
20246;DHT22;10281;54.406;18.556;2024-03-22T03:04:05;5.70;99.90
20246;DHT22;10281;54.406;18.556;2024-03-22T03:06:31;5.70;99.90
20246;DHT22;10281;54.406;18.556;2024-03-22T03:08:58;5.70;99.90
20246;DHT22;10281;54.406;18.556;2024-03-22T03:11:24;5.70;99.90
20246;DHT22;10281;54.406;18.556;2024-03-22T03:13:51;5.70;99.90
20246;DHT22;10281;54.406;18.556;2024-03-22T03:16:18;5.80;99.90
20246;DHT22;10281;54.406;18.556;2024-03-22T03:18:44;5.70;99.90
20246;DHT22;10281;54.406;18.556;2024-03-22T03:21:11;5.70;99.90
20246;DHT22;10281;54.406;18.556;2024-03-22T03:23:37;5.70;99.90
20246;DHT22;10281;54.406;18.556;2024-03-22T03:26:04;5.70;99.90
20246;DHT22;10281;54.406;18.556;2024-03-22T03:28:31;5.70;99.90
20246;DHT22;10281;54.406;18.556;2024-03-22T03:30:57;5.70;99.90
20246;DHT22;10281;54.406;18.556;2024-03-22T03:33:24;5.70;99.90
20246;DHT22;10281;54.406;18.556;2024-03-22T03:35:51;5.70;99.90
20246;DHT22;10281;54.406;18.556;2024-03-22T03:38:18;5.70;99.90
20246;DHT22;10281;54.406;18.556;2024-03-22T03:40:44;5.70;99.90
20246;DHT22;10281;54.406;18.556;2024-03-22T03:43:11;5.70;99.90
20246;DHT22;10281;54.406;18.556;2024-03-22T03:45:38;5.70;99.90
20246;DHT22;10281;54.406;18.556;2024-03-22T03:48:04;5.70;99.90
20246;DHT22;10281;54.406;18.556;2024-03-22T03:50:31;5.70;99.90
20246;DHT22;10281;54.406;18.556;2024-03-22T03:52:58;5.70;99.90
20246;DHT22;10281;54.406;18.556;2024-03-22T03:55:25;5.70;99.90
20246;DHT22;10281;54.406;18.556;2024-03-22T03:57:51;5.80;99.90
20246;DHT22;10281;54.406;18.556;2024-03-22T04:00:19;5.80;99.90
20246;DHT22;10281;54.406;18.556;2024-03-22T04:02:48;5.80;99.90
20246;DHT22;10281;54.406;18.556;2024-03-22T04:05:16;5.90;99.90
20246;DHT22;10281;54.406;18.556;2024-03-22T04:07:48;5.90;99.90
20246;DHT22;10281;54.406;18.556;2024-03-22T04:10:14;5.80;99.90
20246;DHT22;10281;54.406;18.556;2024-03-22T04:12:41;5.90;99.90
20246;DHT22;10281;54.406;18.556;2024-03-22T04:15:08;5.90;99.90
20246;DHT22;10281;54.406;18.556;2024-03-22T04:17:34;5.90;99.90
20246;DHT22;10281;54.406;18.556;2024-03-22T04:20:02;5.90;99.90
20246;DHT22;10281;54.406;18.556;2024-03-22T04:22:30;6.00;99.90
20246;DHT22;10281;54.406;18.556;2024-03-22T04:24:56;6.00;99.90
20246;DHT22;10281;54.406;18.556;2024-03-22T04:27:23;6.00;99.90
20246;DHT22;10281;54.406;18.556;2024-03-22T04:29:49;6.00;99.90
20246;DHT22;10281;54.406;18.556;2024-03-22T04:32:16;6.00;99.90
20246;DHT22;10281;54.406;18.556;2024-03-22T04:34:43;6.00;99.90
20246;DHT22;10281;54.406;18.556;2024-03-22T04:37:10;6.00;99.90
20246;DHT22;10281;54.406;18.556;2024-03-22T04:39:39;6.00;99.90
20246;DHT22;10281;54.406;18.556;2024-03-22T04:42:06;6.00;99.90
20246;DHT22;10281;54.406;18.556;2024-03-22T04:44:33;6.10;99.90
20246;DHT22;10281;54.406;18.556;2024-03-22T04:46:59;6.10;99.90
20246;DHT22;10281;54.406;18.556;2024-03-22T04:49:26;6.10;99.90
20246;DHT22;10281;54.406;18.556;2024-03-22T04:51:53;6.10;99.90
20246;DHT22;10281;54.406;18.556;2024-03-22T04:54:19;6.10;99.90
20246;DHT22;10281;54.406;18.556;2024-03-22T04:56:46;6.10;99.90
20246;DHT22;10281;54.406;18.556;2024-03-22T04:59:12;6.10;99.90
20246;DHT22;10281;54.406;18.556;2024-03-22T05:01:39;6.10;99.90
20246;DHT22;10281;54.406;18.556;2024-03-22T05:04:06;6.10;99.90
20246;DHT22;10281;54.406;18.556;2024-03-22T05:06:32;6.20;99.90
20246;DHT22;10281;54.406;18.556;2024-03-22T05:08:59;6.20;99.90
20246;DHT22;10281;54.406;18.556;2024-03-22T05:11:25;6.20;99.90
20246;DHT22;10281;54.406;18.556;2024-03-22T05:13:52;6.20;99.90
20246;DHT22;10281;54.406;18.556;2024-03-22T05:16:19;6.30;99.90
20246;DHT22;10281;54.406;18.556;2024-03-22T05:18:45;6.30;99.90
20246;DHT22;10281;54.406;18.556;2024-03-22T05:21:12;6.40;99.90
20246;DHT22;10281;54.406;18.556;2024-03-22T05:23:38;6.30;99.90
20246;DHT22;10281;54.406;18.556;2024-03-22T05:26:05;6.40;99.90
20246;DHT22;10281;54.406;18.556;2024-03-22T05:28:32;6.40;99.90
20246;DHT22;10281;54.406;18.556;2024-03-22T05:30:59;6.50;99.90
20246;DHT22;10281;54.406;18.556;2024-03-22T05:33:25;6.50;99.90
20246;DHT22;10281;54.406;18.556;2024-03-22T05:35:53;6.50;99.90
20246;DHT22;10281;54.406;18.556;2024-03-22T05:38:19;6.40;99.90
20246;DHT22;10281;54.406;18.556;2024-03-22T05:40:46;6.40;99.90
20246;DHT22;10281;54.406;18.556;2024-03-22T05:43:14;6.40;99.90
20246;DHT22;10281;54.406;18.556;2024-03-22T05:45:41;6.30;99.90
20246;DHT22;10281;54.406;18.556;2024-03-22T05:48:07;6.40;99.90
20246;DHT22;10281;54.406;18.556;2024-03-22T05:50:34;6.40;99.90
20246;DHT22;10281;54.406;18.556;2024-03-22T05:53:00;6.40;99.90
20246;DHT22;10281;54.406;18.556;2024-03-22T05:55:27;6.40;99.90
20246;DHT22;10281;54.406;18.556;2024-03-22T05:57:55;6.30;99.90
20246;DHT22;10281;54.406;18.556;2024-03-22T06:00:22;6.40;99.90
20246;DHT22;10281;54.406;18.556;2024-03-22T06:02:49;6.40;99.90
20246;DHT22;10281;54.406;18.556;2024-03-22T06:05:15;6.40;99.90
20246;DHT22;10281;54.406;18.556;2024-03-22T06:07:44;6.40;99.90
20246;DHT22;10281;54.406;18.556;2024-03-22T06:10:12;6.40;99.90
20246;DHT22;10281;54.406;18.556;2024-03-22T06:12:38;6.50;99.90
20246;DHT22;10281;54.406;18.556;2024-03-22T06:15:06;6.50;99.90
20246;DHT22;10281;54.406;18.556;2024-03-22T06:17:33;6.50;99.90
20246;DHT22;10281;54.406;18.556;2024-03-22T06:20:00;6.50;99.90
20246;DHT22;10281;54.406;18.556;2024-03-22T06:22:26;6.60;99.90
20246;DHT22;10281;54.406;18.556;2024-03-22T06:24:53;6.50;99.90
20246;DHT22;10281;54.406;18.556;2024-03-22T06:27:20;6.50;99.90
20246;DHT22;10281;54.406;18.556;2024-03-22T06:29:46;6.50;99.90
20246;DHT22;10281;54.406;18.556;2024-03-22T06:32:13;6.50;99.90
20246;DHT22;10281;54.406;18.556;2024-03-22T06:34:40;6.50;99.90
20246;DHT22;10281;54.406;18.556;2024-03-22T06:37:06;6.50;99.90
20246;DHT22;10281;54.406;18.556;2024-03-22T06:39:33;6.60;99.90
20246;DHT22;10281;54.406;18.556;2024-03-22T06:42:00;6.60;99.90
20246;DHT22;10281;54.406;18.556;2024-03-22T06:44:26;6.60;99.90
20246;DHT22;10281;54.406;18.556;2024-03-22T06:46:53;6.60;99.90
20246;DHT22;10281;54.406;18.556;2024-03-22T06:49:19;6.70;99.90
20246;DHT22;10281;54.406;18.556;2024-03-22T06:51:46;6.70;99.90
20246;DHT22;10281;54.406;18.556;2024-03-22T06:54:13;6.80;99.90
20246;DHT22;10281;54.406;18.556;2024-03-22T06:56:39;6.90;99.90
20246;DHT22;10281;54.406;18.556;2024-03-22T06:59:07;6.90;99.90
20246;DHT22;10281;54.406;18.556;2024-03-22T07:01:33;7.00;99.90
20246;DHT22;10281;54.406;18.556;2024-03-22T07:04:00;7.00;99.90
20246;DHT22;10281;54.406;18.556;2024-03-22T07:06:26;7.00;99.90
20246;DHT22;10281;54.406;18.556;2024-03-22T07:08:53;6.90;99.90
20246;DHT22;10281;54.406;18.556;2024-03-22T07:11:19;6.90;99.90
20246;DHT22;10281;54.406;18.556;2024-03-22T07:13:46;7.00;99.90
20246;DHT22;10281;54.406;18.556;2024-03-22T07:16:13;6.90;99.90
20246;DHT22;10281;54.406;18.556;2024-03-22T07:18:39;7.00;99.90
20246;DHT22;10281;54.406;18.556;2024-03-22T07:21:06;7.00;99.90
20246;DHT22;10281;54.406;18.556;2024-03-22T07:23:33;7.00;99.90
20246;DHT22;10281;54.406;18.556;2024-03-22T07:25:59;7.10;99.90
20246;DHT22;10281;54.406;18.556;2024-03-22T07:28:26;7.10;99.90
20246;DHT22;10281;54.406;18.556;2024-03-22T07:30:53;7.10;99.90
20246;DHT22;10281;54.406;18.556;2024-03-22T07:33:21;7.10;99.90
20246;DHT22;10281;54.406;18.556;2024-03-22T07:35:47;7.10;99.90
20246;DHT22;10281;54.406;18.556;2024-03-22T07:38:14;7.10;99.90
20246;DHT22;10281;54.406;18.556;2024-03-22T07:40:40;7.10;99.90
20246;DHT22;10281;54.406;18.556;2024-03-22T07:43:07;7.10;99.90
20246;DHT22;10281;54.406;18.556;2024-03-22T07:45:34;7.10;99.90
20246;DHT22;10281;54.406;18.556;2024-03-22T07:48:01;7.20;99.90
20246;DHT22;10281;54.406;18.556;2024-03-22T07:50:28;7.20;99.90
20246;DHT22;10281;54.406;18.556;2024-03-22T07:52:54;7.30;99.90
20246;DHT22;10281;54.406;18.556;2024-03-22T07:55:22;7.30;99.90
20246;DHT22;10281;54.406;18.556;2024-03-22T07:57:49;7.40;99.90
20246;DHT22;10281;54.406;18.556;2024-03-22T08:00:16;7.50;99.90
20246;DHT22;10281;54.406;18.556;2024-03-22T08:02:43;7.50;99.90
20246;DHT22;10281;54.406;18.556;2024-03-22T08:05:09;7.50;99.90
20246;DHT22;10281;54.406;18.556;2024-03-22T08:07:36;7.50;99.90
20246;DHT22;10281;54.406;18.556;2024-03-22T08:10:03;7.50;99.90
20246;DHT22;10281;54.406;18.556;2024-03-22T08:12:30;7.60;99.90
20246;DHT22;10281;54.406;18.556;2024-03-22T08:14:57;7.60;99.90
20246;DHT22;10281;54.406;18.556;2024-03-22T08:17:23;7.70;99.90
20246;DHT22;10281;54.406;18.556;2024-03-22T08:19:50;7.70;99.90
20246;DHT22;10281;54.406;18.556;2024-03-22T08:22:17;7.80;99.90
20246;DHT22;10281;54.406;18.556;2024-03-22T08:24:43;7.80;99.90
20246;DHT22;10281;54.406;18.556;2024-03-22T08:27:10;7.90;99.90
20246;DHT22;10281;54.406;18.556;2024-03-22T08:29:37;8.00;99.90
20246;DHT22;10281;54.406;18.556;2024-03-22T08:32:04;8.00;99.90
20246;DHT22;10281;54.406;18.556;2024-03-22T08:34:31;8.10;99.90
20246;DHT22;10281;54.406;18.556;2024-03-22T08:36:58;8.10;99.90
20246;DHT22;10281;54.406;18.556;2024-03-22T08:39:25;8.10;99.90
20246;DHT22;10281;54.406;18.556;2024-03-22T08:41:52;8.20;99.90
20246;DHT22;10281;54.406;18.556;2024-03-22T08:44:18;8.20;99.90
20246;DHT22;10281;54.406;18.556;2024-03-22T08:46:45;8.30;99.90
20246;DHT22;10281;54.406;18.556;2024-03-22T08:49:12;8.40;99.90
20246;DHT22;10281;54.406;18.556;2024-03-22T08:51:39;8.50;99.90
20246;DHT22;10281;54.406;18.556;2024-03-22T08:54:05;8.60;99.90
20246;DHT22;10281;54.406;18.556;2024-03-22T08:56:32;8.60;99.90
20246;DHT22;10281;54.406;18.556;2024-03-22T08:58:59;8.60;99.90
20246;DHT22;10281;54.406;18.556;2024-03-22T09:01:26;8.70;99.90
20246;DHT22;10281;54.406;18.556;2024-03-22T09:03:53;8.80;99.90
20246;DHT22;10281;54.406;18.556;2024-03-22T09:06:20;8.90;99.90
20246;DHT22;10281;54.406;18.556;2024-03-22T09:08:47;8.80;99.90
20246;DHT22;10281;54.406;18.556;2024-03-22T09:11:14;8.90;99.90
20246;DHT22;10281;54.406;18.556;2024-03-22T09:13:40;8.90;99.90
20246;DHT22;10281;54.406;18.556;2024-03-22T09:16:07;8.90;99.90
20246;DHT22;10281;54.406;18.556;2024-03-22T09:18:33;9.00;99.90
20246;DHT22;10281;54.406;18.556;2024-03-22T09:21:00;9.00;99.90
20246;DHT22;10281;54.406;18.556;2024-03-22T09:23:27;9.10;99.90
20246;DHT22;10281;54.406;18.556;2024-03-22T09:25:54;9.10;99.90
20246;DHT22;10281;54.406;18.556;2024-03-22T09:28:20;9.20;99.90
20246;DHT22;10281;54.406;18.556;2024-03-22T09:30:47;9.30;99.90
20246;DHT22;10281;54.406;18.556;2024-03-22T09:33:14;9.30;99.90
20246;DHT22;10281;54.406;18.556;2024-03-22T09:35:40;9.40;99.90
20246;DHT22;10281;54.406;18.556;2024-03-22T09:38:07;9.50;99.90
20246;DHT22;10281;54.406;18.556;2024-03-22T09:40:34;9.60;99.90
20246;DHT22;10281;54.406;18.556;2024-03-22T09:43:04;9.60;99.90
20246;DHT22;10281;54.406;18.556;2024-03-22T09:45:33;9.60;99.90
20246;DHT22;10281;54.406;18.556;2024-03-22T09:48:00;9.50;99.90
20246;DHT22;10281;54.406;18.556;2024-03-22T09:50:28;9.50;99.90
20246;DHT22;10281;54.406;18.556;2024-03-22T09:52:56;9.40;99.90
20246;DHT22;10281;54.406;18.556;2024-03-22T09:55:24;9.30;99.90
20246;DHT22;10281;54.406;18.556;2024-03-22T09:57:51;9.30;99.90
20246;DHT22;10281;54.406;18.556;2024-03-22T10:00:20;9.30;99.90
20246;DHT22;10281;54.406;18.556;2024-03-22T10:02:49;9.20;99.90
20246;DHT22;10281;54.406;18.556;2024-03-22T10:05:16;9.20;99.90
20246;DHT22;10281;54.406;18.556;2024-03-22T10:07:44;9.30;99.90
20246;DHT22;10281;54.406;18.556;2024-03-22T10:10:11;9.20;99.90
20246;DHT22;10281;54.406;18.556;2024-03-22T10:12:40;9.10;99.90
20246;DHT22;10281;54.406;18.556;2024-03-22T10:15:08;9.10;99.90
20246;DHT22;10281;54.406;18.556;2024-03-22T10:17:35;9.20;99.90
20246;DHT22;10281;54.406;18.556;2024-03-22T10:20:02;9.30;99.90
20246;DHT22;10281;54.406;18.556;2024-03-22T10:22:29;9.30;99.90
20246;DHT22;10281;54.406;18.556;2024-03-22T10:24:56;9.30;99.90
20246;DHT22;10281;54.406;18.556;2024-03-22T10:27:27;9.40;99.90
20246;DHT22;10281;54.406;18.556;2024-03-22T10:29:55;9.40;99.90
20246;DHT22;10281;54.406;18.556;2024-03-22T10:32:23;9.40;99.90
20246;DHT22;10281;54.406;18.556;2024-03-22T10:34:50;9.30;99.90
20246;DHT22;10281;54.406;18.556;2024-03-22T10:37:18;9.30;99.90
20246;DHT22;10281;54.406;18.556;2024-03-22T10:39:46;9.30;99.90
20246;DHT22;10281;54.406;18.556;2024-03-22T10:42:14;9.30;99.90
20246;DHT22;10281;54.406;18.556;2024-03-22T10:44:42;9.40;99.90
20246;DHT22;10281;54.406;18.556;2024-03-22T10:47:10;9.40;99.90
20246;DHT22;10281;54.406;18.556;2024-03-22T10:49:39;9.40;99.90
20246;DHT22;10281;54.406;18.556;2024-03-22T10:52:09;9.40;99.90
20246;DHT22;10281;54.406;18.556;2024-03-22T10:54:40;9.40;99.90
20246;DHT22;10281;54.406;18.556;2024-03-22T10:57:11;9.40;99.90
20246;DHT22;10281;54.406;18.556;2024-03-22T10:59:41;9.50;99.90
20246;DHT22;10281;54.406;18.556;2024-03-22T11:02:10;9.60;99.90
20246;DHT22;10281;54.406;18.556;2024-03-22T11:04:38;9.70;99.90
20246;DHT22;10281;54.406;18.556;2024-03-22T11:07:05;9.70;99.90
20246;DHT22;10281;54.406;18.556;2024-03-22T11:09:31;9.80;99.90
20246;DHT22;10281;54.406;18.556;2024-03-22T11:11:58;9.70;99.90
20246;DHT22;10281;54.406;18.556;2024-03-22T11:14:26;9.80;99.90
20246;DHT22;10281;54.406;18.556;2024-03-22T11:16:53;9.80;99.90
20246;DHT22;10281;54.406;18.556;2024-03-22T11:19:19;9.80;99.90
20246;DHT22;10281;54.406;18.556;2024-03-22T11:21:46;9.80;99.90
20246;DHT22;10281;54.406;18.556;2024-03-22T11:24:13;9.70;99.90
20246;DHT22;10281;54.406;18.556;2024-03-22T11:26:39;9.80;99.90
20246;DHT22;10281;54.406;18.556;2024-03-22T11:29:06;9.80;99.90
20246;DHT22;10281;54.406;18.556;2024-03-22T11:31:34;9.70;99.90
20246;DHT22;10281;54.406;18.556;2024-03-22T11:34:01;9.70;99.90
20246;DHT22;10281;54.406;18.556;2024-03-22T11:36:29;9.80;99.90
20246;DHT22;10281;54.406;18.556;2024-03-22T11:38:56;9.80;99.90
20246;DHT22;10281;54.406;18.556;2024-03-22T11:41:28;9.80;99.90
20246;DHT22;10281;54.406;18.556;2024-03-22T11:43:55;9.80;99.90
20246;DHT22;10281;54.406;18.556;2024-03-22T11:46:24;9.90;99.90
20246;DHT22;10281;54.406;18.556;2024-03-22T11:48:52;9.90;99.90
20246;DHT22;10281;54.406;18.556;2024-03-22T11:51:19;10.00;99.90
20246;DHT22;10281;54.406;18.556;2024-03-22T11:53:50;10.00;99.90
20246;DHT22;10281;54.406;18.556;2024-03-22T11:56:18;10.00;99.90
20246;DHT22;10281;54.406;18.556;2024-03-22T11:58:47;10.10;99.90
20246;DHT22;10281;54.406;18.556;2024-03-22T12:01:15;10.10;99.90
20246;DHT22;10281;54.406;18.556;2024-03-22T12:03:44;10.20;99.90
20246;DHT22;10281;54.406;18.556;2024-03-22T12:06:10;10.20;99.90
20246;DHT22;10281;54.406;18.556;2024-03-22T12:08:38;10.10;99.90
20246;DHT22;10281;54.406;18.556;2024-03-22T12:11:07;10.20;99.90
20246;DHT22;10281;54.406;18.556;2024-03-22T12:13:34;10.20;99.90
20246;DHT22;10281;54.406;18.556;2024-03-22T12:16:02;10.20;99.90
20246;DHT22;10281;54.406;18.556;2024-03-22T12:18:30;10.30;99.90
20246;DHT22;10281;54.406;18.556;2024-03-22T12:20:56;10.30;99.90
20246;DHT22;10281;54.406;18.556;2024-03-22T12:23:23;10.20;99.90
20246;DHT22;10281;54.406;18.556;2024-03-22T12:25:50;10.30;99.90
20246;DHT22;10281;54.406;18.556;2024-03-22T12:28:20;10.40;99.90
20246;DHT22;10281;54.406;18.556;2024-03-22T12:30:49;10.40;99.90
20246;DHT22;10281;54.406;18.556;2024-03-22T12:33:16;10.40;99.90
20246;DHT22;10281;54.406;18.556;2024-03-22T12:35:43;10.40;99.90
20246;DHT22;10281;54.406;18.556;2024-03-22T12:38:10;10.40;99.90
20246;DHT22;10281;54.406;18.556;2024-03-22T12:40:38;10.50;99.90
20246;DHT22;10281;54.406;18.556;2024-03-22T12:43:06;10.60;99.90
20246;DHT22;10281;54.406;18.556;2024-03-22T12:45:32;10.70;99.90
20246;DHT22;10281;54.406;18.556;2024-03-22T12:47:59;10.60;99.90
20246;DHT22;10281;54.406;18.556;2024-03-22T12:50:26;10.60;99.90
20246;DHT22;10281;54.406;18.556;2024-03-22T12:52:53;10.70;99.90
20246;DHT22;10281;54.406;18.556;2024-03-22T12:55:21;10.60;99.90
20246;DHT22;10281;54.406;18.556;2024-03-22T12:57:47;10.60;99.90
20246;DHT22;10281;54.406;18.556;2024-03-22T13:00:14;10.60;99.90
20246;DHT22;10281;54.406;18.556;2024-03-22T13:02:43;10.70;99.90
20246;DHT22;10281;54.406;18.556;2024-03-22T13:05:09;10.70;99.90
20246;DHT22;10281;54.406;18.556;2024-03-22T13:07:36;10.80;99.90
20246;DHT22;10281;54.406;18.556;2024-03-22T13:10:04;10.70;99.90
20246;DHT22;10281;54.406;18.556;2024-03-22T13:12:31;10.70;99.90
20246;DHT22;10281;54.406;18.556;2024-03-22T13:15:00;10.70;99.90
20246;DHT22;10281;54.406;18.556;2024-03-22T13:17:27;10.70;99.90
20246;DHT22;10281;54.406;18.556;2024-03-22T13:19:54;10.70;99.90
20246;DHT22;10281;54.406;18.556;2024-03-22T13:22:20;10.70;99.90
20246;DHT22;10281;54.406;18.556;2024-03-22T13:24:48;10.60;99.90
20246;DHT22;10281;54.406;18.556;2024-03-22T13:27:17;10.60;99.90
20246;DHT22;10281;54.406;18.556;2024-03-22T13:29:44;10.70;99.90
20246;DHT22;10281;54.406;18.556;2024-03-22T13:32:10;10.60;99.90
20246;DHT22;10281;54.406;18.556;2024-03-22T13:34:37;10.70;99.90
20246;DHT22;10281;54.406;18.556;2024-03-22T13:37:04;10.70;99.90
20246;DHT22;10281;54.406;18.556;2024-03-22T13:39:32;10.80;99.90
20246;DHT22;10281;54.406;18.556;2024-03-22T13:41:59;10.90;99.90
20246;DHT22;10281;54.406;18.556;2024-03-22T13:44:25;10.90;99.90
20246;DHT22;10281;54.406;18.556;2024-03-22T13:46:53;10.80;99.90
20246;DHT22;10281;54.406;18.556;2024-03-22T13:49:20;10.90;99.90
20246;DHT22;10281;54.406;18.556;2024-03-22T13:51:48;10.90;99.90
20246;DHT22;10281;54.406;18.556;2024-03-22T13:54:14;10.90;99.90
20246;DHT22;10281;54.406;18.556;2024-03-22T13:56:42;10.90;99.90
20246;DHT22;10281;54.406;18.556;2024-03-22T13:59:08;10.90;99.90
20246;DHT22;10281;54.406;18.556;2024-03-22T14:01:36;10.90;99.90
20246;DHT22;10281;54.406;18.556;2024-03-22T14:04:05;11.00;99.90
20246;DHT22;10281;54.406;18.556;2024-03-22T14:06:32;11.00;99.90
20246;DHT22;10281;54.406;18.556;2024-03-22T14:08:59;11.00;99.90
20246;DHT22;10281;54.406;18.556;2024-03-22T14:11:27;11.00;99.90
20246;DHT22;10281;54.406;18.556;2024-03-22T14:13:57;11.00;99.90
20246;DHT22;10281;54.406;18.556;2024-03-22T14:16:24;11.00;99.90
20246;DHT22;10281;54.406;18.556;2024-03-22T14:18:52;11.00;99.90
20246;DHT22;10281;54.406;18.556;2024-03-22T14:21:19;10.90;99.90
20246;DHT22;10281;54.406;18.556;2024-03-22T14:23:47;10.90;99.90
20246;DHT22;10281;54.406;18.556;2024-03-22T14:26:15;10.90;99.90
20246;DHT22;10281;54.406;18.556;2024-03-22T14:28:42;11.00;99.90
20246;DHT22;10281;54.406;18.556;2024-03-22T14:31:09;11.00;99.90
20246;DHT22;10281;54.406;18.556;2024-03-22T14:33:37;11.00;99.90
20246;DHT22;10281;54.406;18.556;2024-03-22T14:36:04;11.00;99.90
20246;DHT22;10281;54.406;18.556;2024-03-22T14:38:33;11.00;99.90
20246;DHT22;10281;54.406;18.556;2024-03-22T14:40:59;11.10;99.90
20246;DHT22;10281;54.406;18.556;2024-03-22T14:43:27;11.10;99.90
20246;DHT22;10281;54.406;18.556;2024-03-22T14:45:54;11.10;99.90
20246;DHT22;10281;54.406;18.556;2024-03-22T14:48:21;11.00;99.90
20246;DHT22;10281;54.406;18.556;2024-03-22T14:50:48;11.00;99.90
20246;DHT22;10281;54.406;18.556;2024-03-22T14:53:17;11.00;99.90
20246;DHT22;10281;54.406;18.556;2024-03-22T14:55:51;11.10;99.90
20246;DHT22;10281;54.406;18.556;2024-03-22T14:58:18;11.00;99.90
20246;DHT22;10281;54.406;18.556;2024-03-22T15:00:53;10.90;99.90
20246;DHT22;10281;54.406;18.556;2024-03-22T15:03:19;10.90;99.90
20246;DHT22;10281;54.406;18.556;2024-03-22T15:05:46;10.90;99.90
20246;DHT22;10281;54.406;18.556;2024-03-22T15:08:13;10.90;99.90
20246;DHT22;10281;54.406;18.556;2024-03-22T15:10:40;10.90;99.90
20246;DHT22;10281;54.406;18.556;2024-03-22T15:13:07;10.90;99.90
20246;DHT22;10281;54.406;18.556;2024-03-22T15:15:34;10.80;99.90
20246;DHT22;10281;54.406;18.556;2024-03-22T15:18:01;10.80;99.90
20246;DHT22;10281;54.406;18.556;2024-03-22T15:20:27;10.80;99.90
20246;DHT22;10281;54.406;18.556;2024-03-22T15:22:55;10.80;99.90
20246;DHT22;10281;54.406;18.556;2024-03-22T15:25:22;10.70;99.90